createdAt,value
2018-12-21T00:00:43.069Z,60.80
2018-12-21T00:03:15.246Z,60.70
2018-12-21T00:05:46.886Z,60.80
2018-12-21T00:08:19.206Z,60.40
2018-12-21T00:10:51.419Z,60.10
2018-12-21T00:13:23.308Z,59.50
2018-12-21T00:15:55.688Z,59.40
2018-12-21T00:18:27.506Z,59.20
2018-12-21T00:20:58.407Z,59.10
2018-12-21T00:23:29.967Z,59.10
2018-12-21T00:26:01.587Z,58.60
2018-12-21T00:28:33.187Z,57.70
2018-12-21T00:31:09.329Z,57.60
2018-12-21T00:33:45.648Z,57.60
2018-12-21T00:36:22.587Z,56.90
2018-12-21T00:38:58.889Z,56.60
2018-12-21T00:41:29.546Z,55.90
2018-12-21T00:44:07.226Z,55.80
2018-12-21T00:46:42.866Z,55.90
2018-12-21T00:49:14.347Z,55.90
2018-12-21T00:51:46.848Z,56.10
2018-12-21T00:54:17.766Z,55.70
2018-12-21T00:56:50.386Z,55.90
2018-12-21T00:59:22.285Z,55.30
2018-12-21T01:01:54.507Z,55.00
2018-12-21T01:04:25.987Z,54.70
2018-12-21T01:06:58.645Z,54.70
2018-12-21T01:09:30.007Z,55.10
2018-12-21T01:12:02.629Z,55.40
2018-12-21T01:14:35.086Z,55.20
2018-12-21T01:17:06.666Z,55.70
2018-12-21T01:19:38.185Z,56.10
2018-12-21T01:22:10.207Z,56.50
2018-12-21T01:24:41.933Z,56.90
2018-12-21T01:27:13.767Z,56.80
2018-12-21T01:29:45.655Z,56.90
2018-12-21T01:32:17.685Z,57.00
2018-12-21T01:34:49.197Z,57.20
2018-12-21T01:37:20.956Z,57.10
2018-12-21T01:39:54.197Z,57.00
2018-12-21T01:42:25.976Z,56.10
2018-12-21T01:44:59.677Z,56.10
2018-12-21T01:47:31.417Z,56.40
2018-12-21T01:50:04.037Z,56.70
2018-12-21T01:52:36.957Z,57.20
2018-12-21T01:55:09.176Z,57.30
2018-12-21T01:57:41.418Z,58.20
2018-12-21T02:00:13.897Z,58.60
2018-12-21T02:02:45.423Z,58.60
2018-12-21T02:05:17.257Z,58.20
2018-12-21T02:07:49.017Z,57.50
2018-12-21T02:10:21.277Z,57.10
2018-12-21T02:12:53.219Z,56.30
2018-12-21T02:15:25.097Z,56.10
2018-12-21T02:17:56.676Z,55.30
2018-12-21T02:20:28.780Z,54.50
2018-12-21T02:22:59.921Z,54.90
2018-12-21T02:25:31.997Z,54.80
2018-12-21T02:28:03.360Z,54.50
2018-12-21T02:30:35.758Z,54.50
2018-12-21T02:33:07.317Z,54.30
2018-12-21T02:35:39.658Z,54.70
2018-12-21T02:38:11.858Z,54.70
2018-12-21T02:40:43.257Z,54.90
2018-12-21T02:43:14.418Z,54.80
2018-12-21T02:45:45.961Z,53.80
2018-12-21T02:48:17.378Z,54.80
2018-12-21T02:50:49.040Z,54.60
2018-12-21T02:53:20.325Z,54.60
2018-12-21T02:55:52.818Z,54.50
2018-12-21T02:58:24.499Z,54.50
2018-12-21T03:00:57.323Z,54.70
2018-12-21T03:03:28.937Z,54.40
2018-12-21T03:06:01.490Z,54.50
2018-12-21T03:08:33.308Z,54.60
2018-12-21T03:11:05.898Z,54.80
2018-12-21T03:13:37.277Z,54.60
2018-12-21T03:16:09.360Z,54.80
2018-12-21T03:18:41.167Z,54.90
2018-12-21T03:21:13.107Z,54.80
2018-12-21T03:23:44.284Z,55.00
2018-12-21T03:26:16.807Z,55.00
2018-12-21T03:28:48.262Z,55.20
2018-12-21T03:31:20.829Z,55.20
2018-12-21T03:33:52.625Z,55.30
2018-12-21T03:36:24.445Z,54.90
2018-12-21T03:38:56.023Z,54.90
2018-12-21T03:41:27.322Z,54.10
2018-12-21T03:43:59.142Z,53.50
2018-12-21T03:46:31.462Z,53.60
2018-12-21T03:49:03.245Z,52.70
2018-12-21T03:51:34.913Z,51.60
2018-12-21T03:54:05.983Z,51.50
2018-12-21T03:56:38.562Z,51.50
2018-12-21T03:59:10.487Z,51.20
2018-12-21T04:01:42.524Z,51.60
2018-12-21T04:04:14.863Z,52.20
2018-12-21T04:06:46.422Z,51.60
2018-12-21T04:09:18.907Z,52.00
2018-12-21T04:11:50.942Z,51.80
2018-12-21T04:14:23.250Z,51.80
2018-12-21T04:16:54.863Z,52.20
2018-12-21T04:19:26.223Z,52.50
2018-12-21T04:21:58.944Z,52.80
2018-12-21T04:24:30.184Z,52.60
2018-12-21T04:27:01.466Z,51.80
2018-12-21T04:29:33.103Z,51.60
2018-12-21T04:32:06.383Z,50.80
2018-12-21T04:34:38.022Z,50.00
2018-12-21T04:37:10.185Z,49.50
2018-12-21T04:39:42.124Z,49.70
2018-12-21T04:42:13.944Z,49.90
2018-12-21T04:44:45.305Z,50.00
2018-12-21T04:47:16.782Z,50.20
2018-12-21T04:49:47.702Z,50.20
2018-12-21T04:52:19.883Z,50.30
2018-12-21T04:54:51.022Z,50.60
2018-12-21T04:57:23.263Z,50.70
2018-12-21T04:59:54.642Z,51.00
2018-12-21T05:02:26.502Z,51.80
2018-12-21T05:04:57.588Z,51.40
2018-12-21T05:07:29.411Z,51.60
2018-12-21T05:10:01.555Z,51.90
2018-12-21T05:12:33.845Z,52.20
2018-12-21T05:15:05.687Z,52.70
2018-12-21T05:17:37.482Z,52.50
2018-12-21T05:20:09.304Z,52.70
2018-12-21T05:22:40.464Z,51.80
2018-12-21T05:25:12.203Z,51.50
2018-12-21T05:27:43.524Z,51.30
2018-12-21T05:30:16.825Z,51.60
2018-12-21T05:32:48.323Z,51.60
2018-12-21T05:35:20.184Z,51.70
2018-12-21T05:37:52.103Z,51.30
2018-12-21T05:40:23.864Z,51.60
2018-12-21T05:42:55.204Z,51.80
2018-12-21T05:45:27.004Z,51.90
2018-12-21T05:47:59.562Z,52.10
2018-12-21T05:50:31.425Z,52.40
2018-12-21T05:53:04.323Z,52.50
2018-12-21T05:55:35.882Z,52.90
2018-12-21T05:58:09.482Z,53.60
2018-12-21T06:00:41.264Z,54.30
2018-12-21T06:03:13.265Z,56.20
2018-12-21T06:05:44.624Z,57.00
2018-12-21T06:08:16.632Z,58.30
2018-12-21T06:10:48.943Z,57.40
2018-12-21T06:13:20.184Z,56.30
2018-12-21T06:15:51.505Z,55.40
2018-12-21T06:18:23.583Z,55.00
2018-12-21T06:20:56.123Z,54.90
2018-12-21T06:23:27.122Z,54.60
2018-12-21T06:25:59.125Z,54.30
2018-12-21T06:28:31.855Z,54.10
2018-12-21T06:31:03.845Z,54.10
2018-12-21T06:33:36.103Z,54.30
2018-12-21T06:36:08.647Z,54.20
2018-12-21T06:38:40.643Z,54.30
2018-12-21T06:41:13.076Z,54.20
2018-12-21T06:43:45.004Z,54.10
2018-12-21T06:46:17.025Z,54.30
2018-12-21T06:48:49.004Z,54.10
2018-12-21T06:51:19.984Z,53.30
2018-12-21T06:53:52.304Z,52.90
2018-12-21T06:56:24.943Z,51.80
2018-12-21T06:58:56.142Z,51.60
2018-12-21T07:01:28.303Z,51.50
2018-12-21T07:03:59.983Z,51.30
2018-12-21T07:06:32.824Z,51.20
2018-12-21T07:09:03.866Z,50.40
2018-12-21T07:11:36.425Z,50.60
2018-12-21T07:14:08.942Z,50.40
2018-12-21T07:16:41.083Z,50.30
2018-12-21T07:19:14.023Z,49.80
2018-12-21T07:21:45.183Z,49.50
2018-12-21T07:24:18.023Z,49.10
2018-12-21T07:26:49.283Z,48.50
2018-12-21T07:29:21.043Z,48.40
2018-12-21T07:31:53.542Z,47.70
2018-12-21T07:34:26.136Z,47.20
2018-12-21T07:36:57.722Z,47.10
2018-12-21T07:39:32.262Z,46.70
2018-12-21T07:42:04.184Z,46.60
2018-12-21T07:44:35.884Z,46.20
2018-12-21T07:47:07.646Z,45.00
2018-12-21T07:49:39.043Z,44.70
2018-12-21T07:52:11.403Z,44.30
2018-12-21T07:54:43.307Z,44.10
2018-12-21T07:57:15.202Z,44.10
2018-12-21T07:59:47.444Z,43.90
2018-12-21T08:02:18.823Z,46.60
2018-12-21T08:04:50.023Z,50.50
2018-12-21T08:07:22.123Z,49.00
2018-12-21T08:09:54.583Z,49.10
2018-12-21T08:12:27.350Z,48.80
2018-12-21T08:15:00.002Z,47.60
2018-12-21T08:17:31.345Z,47.60
2018-12-21T08:20:03.102Z,47.80
2018-12-21T08:22:34.981Z,50.30
2018-12-21T08:25:08.022Z,50.40
2018-12-21T08:27:39.982Z,52.40
2018-12-21T08:30:12.745Z,52.40
2018-12-21T08:32:44.962Z,52.70
2018-12-21T08:35:16.462Z,53.20
2018-12-21T08:37:48.024Z,53.10
2018-12-21T08:40:19.443Z,53.70
2018-12-21T08:42:50.930Z,53.70
2018-12-21T08:45:22.643Z,53.80
2018-12-21T08:47:56.123Z,54.40
2018-12-21T08:50:27.889Z,54.80
2018-12-21T08:52:59.429Z,54.90
2018-12-21T08:55:31.168Z,54.90
2018-12-21T08:58:03.379Z,55.60
2018-12-21T09:00:34.794Z,55.80
2018-12-21T09:03:06.159Z,55.80
2018-12-21T09:05:38.336Z,56.00
2018-12-21T09:08:10.295Z,56.40
2018-12-21T09:10:42.234Z,56.80
2018-12-21T09:13:14.054Z,56.50
2018-12-21T09:15:46.086Z,56.90
2018-12-21T09:18:17.498Z,57.20
2018-12-21T09:20:49.858Z,58.00
2018-12-21T09:23:21.780Z,57.70
2018-12-21T09:25:53.720Z,58.10
2018-12-21T09:28:25.664Z,58.30
2018-12-21T09:30:56.813Z,58.60
2018-12-21T09:33:27.350Z,58.90
2018-12-21T09:35:58.503Z,58.60
2018-12-21T09:38:30.457Z,59.20
2018-12-21T09:41:02.637Z,59.30
2018-12-21T09:43:33.537Z,59.50
2018-12-21T09:46:05.118Z,59.90
2018-12-21T09:48:36.533Z,59.90
2018-12-21T09:51:08.139Z,59.80
2018-12-21T09:53:39.626Z,59.50
2018-12-21T09:56:11.178Z,59.60
2018-12-21T09:58:43.137Z,60.20
2018-12-21T10:01:15.217Z,60.80
2018-12-21T10:03:46.758Z,60.80
2018-12-21T10:06:18.346Z,61.50
2018-12-21T10:08:50.957Z,61.60
2018-12-21T10:11:23.323Z,61.40
2018-12-21T10:13:54.765Z,61.60
2018-12-21T10:16:26.847Z,61.90
2018-12-21T10:18:58.905Z,62.50
2018-12-21T10:21:31.627Z,63.20
2018-12-21T10:24:04.067Z,59.80
2018-12-21T10:26:35.766Z,59.90
2018-12-21T10:29:06.904Z,59.30
2018-12-21T10:31:39.235Z,59.90
2018-12-21T10:34:11.236Z,58.90
2018-12-21T10:36:43.336Z,58.70
2018-12-21T10:39:15.495Z,58.80
2018-12-21T10:41:47.726Z,58.60
2018-12-21T10:44:20.116Z,57.30
2018-12-21T10:46:52.136Z,56.90
2018-12-21T10:49:24.195Z,56.40
2018-12-21T10:51:56.497Z,57.60
2018-12-21T10:54:27.775Z,57.40
2018-12-21T10:56:59.622Z,57.70
2018-12-21T10:59:31.002Z,54.90
2018-12-21T11:02:02.476Z,55.60
2018-12-21T11:04:34.893Z,55.30
2018-12-21T11:07:06.293Z,55.70
2018-12-21T11:09:38.653Z,53.40
2018-12-21T11:12:10.199Z,49.60
2018-12-21T11:14:42.274Z,50.60
2018-12-21T11:17:13.975Z,49.50
2018-12-21T11:19:45.395Z,49.50
2018-12-21T11:22:17.020Z,47.60
2018-12-21T11:24:48.890Z,46.60
2018-12-21T11:27:21.411Z,46.50
2018-12-21T11:29:53.287Z,46.60
2018-12-21T11:32:25.186Z,46.40
2018-12-21T11:34:56.666Z,45.80
2018-12-21T11:37:28.950Z,46.30
2018-12-21T11:40:00.447Z,47.30
2018-12-21T11:42:32.189Z,48.30
2018-12-21T11:45:04.260Z,49.20
2018-12-21T11:47:35.903Z,48.80
2018-12-21T11:50:10.140Z,49.70
2018-12-21T11:52:41.482Z,50.20
2018-12-21T11:55:13.385Z,50.30
2018-12-21T11:57:44.785Z,49.00
2018-12-21T12:00:16.403Z,51.00
2018-12-21T12:02:48.282Z,52.30
2018-12-21T12:05:19.365Z,50.70
2018-12-21T12:07:51.672Z,51.80
2018-12-21T12:10:23.112Z,52.10
2018-12-21T12:12:55.030Z,53.40
2018-12-21T12:15:28.591Z,54.50
2018-12-21T12:18:01.010Z,54.50
2018-12-21T12:20:33.591Z,55.10
2018-12-21T12:23:06.286Z,56.60
2018-12-21T12:25:38.732Z,56.80
2018-12-21T12:28:10.978Z,53.40
2018-12-21T12:30:43.987Z,52.90
2018-12-21T12:33:15.658Z,52.10
2018-12-21T12:35:47.924Z,51.60
2018-12-21T12:38:19.370Z,52.10
2018-12-21T12:40:51.368Z,49.60
2018-12-21T12:43:23.303Z,51.50
2018-12-21T12:45:55.324Z,52.20
2018-12-21T12:48:27.284Z,51.80
2018-12-21T12:50:59.483Z,50.00
2018-12-21T12:53:31.044Z,50.30
2018-12-21T12:56:05.328Z,50.70
2018-12-21T12:58:37.454Z,51.00
2018-12-21T13:01:09.764Z,52.10
2018-12-21T13:03:41.144Z,52.90
2018-12-21T13:06:13.543Z,54.60
2018-12-21T13:08:44.604Z,56.20
2018-12-21T13:11:16.263Z,57.20
2018-12-21T13:13:47.843Z,59.20
2018-12-21T13:16:20.644Z,60.50
2018-12-21T13:18:51.803Z,61.80
2018-12-21T13:21:24.285Z,62.80
2018-12-21T13:23:55.727Z,64.80
2018-12-21T13:26:27.686Z,65.40
2018-12-21T13:28:58.764Z,66.00
2018-12-21T13:31:31.104Z,65.30
2018-12-21T13:34:03.843Z,64.20
2018-12-21T13:36:36.676Z,65.80
2018-12-21T13:39:10.330Z,64.90
2018-12-21T13:41:42.330Z,64.90
2018-12-21T13:44:14.069Z,64.70
2018-12-21T13:46:46.230Z,66.80
2018-12-21T13:49:17.567Z,67.80
2018-12-21T13:51:48.865Z,68.80
2018-12-21T13:54:20.603Z,68.90
2018-12-21T13:56:52.784Z,68.00
2018-12-21T13:59:24.461Z,67.30
2018-12-21T14:01:57.182Z,68.60
2018-12-21T14:04:28.603Z,68.80
2018-12-21T14:07:01.343Z,68.90
2018-12-21T14:09:32.903Z,68.40
2018-12-21T14:12:05.684Z,69.00
2018-12-21T14:14:37.903Z,69.40
2018-12-21T14:17:08.824Z,70.40
2018-12-21T14:19:40.784Z,71.40
2018-12-21T14:22:12.283Z,70.10
2018-12-21T14:24:44.044Z,71.00
2018-12-21T14:27:16.423Z,72.10
2018-12-21T14:29:47.603Z,71.70
2018-12-21T14:32:19.542Z,73.50
2018-12-21T14:34:51.222Z,74.10
2018-12-21T14:37:24.302Z,74.40
2018-12-21T14:39:56.082Z,75.60
2018-12-21T14:42:28.462Z,75.30
2018-12-21T14:44:59.563Z,76.40
2018-12-21T14:47:31.163Z,76.80
2018-12-21T14:50:02.422Z,77.50
2018-12-21T14:52:34.123Z,77.70
2018-12-21T14:55:06.535Z,78.20
2018-12-21T14:57:39.171Z,77.80
2018-12-21T15:00:14.389Z,78.30
2018-12-21T15:02:46.734Z,78.80
2018-12-21T15:05:19.290Z,78.40
2018-12-21T15:07:51.973Z,78.90
2018-12-21T15:10:24.241Z,79.30
2018-12-21T15:12:57.821Z,78.90
2018-12-21T15:15:30.823Z,79.00
2018-12-21T15:18:02.284Z,78.60
2018-12-21T15:20:34.415Z,79.30
2018-12-21T15:23:05.808Z,79.90
2018-12-21T15:25:45.906Z,79.40
2018-12-21T15:28:12.225Z,78.60
2018-12-21T15:30:43.546Z,79.00
2018-12-21T15:33:15.500Z,78.60
2018-12-21T15:35:47.642Z,79.20
2018-12-21T15:38:21.680Z,79.30
2018-12-21T15:40:52.861Z,79.50
2018-12-21T15:43:24.799Z,79.90
2018-12-21T15:45:55.888Z,80.30
2018-12-21T15:48:27.915Z,80.70
2018-12-21T15:50:59.550Z,80.40
2018-12-21T15:53:31.006Z,80.80
2018-12-21T15:56:02.825Z,80.40
2018-12-21T15:58:34.930Z,80.50
2018-12-21T16:01:06.677Z,80.60
2018-12-21T16:03:38.517Z,80.70
2018-12-21T16:06:09.397Z,80.80
2018-12-21T16:08:41.779Z,81.00
2018-12-21T16:11:13.398Z,80.70
2018-12-21T16:13:44.707Z,80.80
2018-12-21T16:16:16.621Z,79.60
2018-12-21T16:18:49.082Z,79.60
2018-12-21T16:21:20.279Z,79.50
2018-12-21T16:23:51.680Z,79.40
2018-12-21T16:26:23.252Z,79.10
2018-12-21T16:28:55.012Z,78.50
2018-12-21T16:31:26.918Z,78.40
2018-12-21T16:33:59.017Z,78.90
2018-12-21T16:36:31.096Z,80.50
2018-12-21T16:39:02.277Z,78.80
2018-12-21T16:41:34.618Z,78.60
2018-12-21T16:44:06.116Z,79.00
2018-12-21T16:46:37.717Z,79.50
2018-12-21T16:49:09.641Z,79.20
2018-12-21T16:51:41.637Z,79.70
2018-12-21T16:54:13.416Z,79.40
2018-12-21T16:56:45.209Z,79.30
2018-12-21T16:59:17.546Z,79.80
2018-12-21T17:01:49.605Z,79.70
2018-12-21T17:04:22.104Z,80.00
2018-12-21T17:06:54.389Z,79.10
2018-12-21T17:09:26.318Z,79.40
2018-12-21T17:11:58.348Z,79.20
2018-12-21T17:14:30.716Z,79.20
2018-12-21T17:17:02.183Z,79.60
2018-12-21T17:19:34.322Z,79.40
2018-12-21T17:22:05.839Z,79.50
2018-12-21T17:24:37.999Z,80.00
2018-12-21T17:27:10.489Z,80.00
2018-12-21T17:29:41.511Z,80.10
2018-12-21T17:32:13.530Z,80.20
2018-12-21T17:34:46.525Z,80.50
2018-12-21T17:37:18.529Z,80.40
2018-12-21T17:39:49.139Z,80.00
2018-12-21T17:42:20.318Z,79.80
2018-12-21T17:44:52.400Z,80.10
2018-12-21T17:47:24.460Z,80.00
2018-12-21T17:49:56.741Z,79.20
2018-12-21T17:52:28.445Z,78.40
2018-12-21T17:55:00.918Z,78.70
2018-12-21T17:57:32.856Z,78.80
2018-12-21T18:00:04.794Z,78.80
2018-12-21T18:02:36.858Z,78.40
2018-12-21T18:05:09.395Z,78.20
2018-12-21T18:07:40.966Z,78.50
2018-12-21T18:10:13.550Z,78.00
2018-12-21T18:12:45.434Z,78.60
2018-12-21T18:15:17.574Z,78.80
2018-12-21T18:17:49.714Z,78.90
2018-12-21T18:20:21.754Z,77.80
2018-12-21T18:22:53.922Z,78.60
2018-12-21T18:25:27.679Z,78.80
2018-12-21T18:28:10.499Z,79.30
2018-12-21T18:30:40.314Z,79.90
2018-12-21T18:33:14.014Z,80.90
2018-12-21T18:35:45.054Z,80.90
2018-12-21T18:38:20.012Z,80.10
2018-12-21T18:40:51.734Z,79.90
2018-12-21T18:43:23.995Z,79.00
2018-12-21T18:45:56.016Z,79.00
2018-12-21T18:48:28.394Z,79.30
2018-12-21T18:50:59.874Z,79.70
2018-12-21T18:53:32.255Z,79.40
2018-12-21T18:56:03.794Z,79.40
2018-12-21T18:58:35.977Z,80.60
2018-12-21T19:01:08.194Z,80.60
2018-12-21T19:03:40.142Z,80.90
2018-12-21T19:06:12.496Z,81.10
2018-12-21T19:08:44.375Z,81.40
2018-12-21T19:11:16.155Z,81.10
2018-12-21T19:13:48.142Z,80.50
2018-12-21T19:16:20.196Z,80.50
2018-12-21T19:18:52.015Z,80.50
2018-12-21T19:21:23.874Z,80.10
2018-12-21T19:23:55.620Z,79.60
2018-12-21T19:26:27.634Z,79.90
2018-12-21T19:28:58.934Z,80.10
2018-12-21T19:31:30.395Z,79.60
2018-12-21T19:34:02.579Z,79.70
2018-12-21T19:36:34.800Z,80.30
2018-12-21T19:39:08.770Z,81.00
2018-12-21T19:41:40.295Z,80.60
2018-12-21T19:44:12.515Z,80.60
2018-12-21T19:46:43.954Z,81.10
2018-12-21T19:49:15.638Z,81.10
2018-12-21T19:51:46.776Z,81.30
2018-12-21T19:54:21.075Z,81.70
2018-12-21T19:57:13.474Z,81.70
2018-12-21T19:59:46.214Z,81.60
2018-12-21T20:02:18.034Z,82.70
2018-12-21T20:04:50.073Z,82.90
2018-12-21T20:07:21.813Z,83.00
2018-12-21T20:09:53.476Z,83.10
2018-12-21T20:12:25.719Z,82.90
2018-12-21T20:14:57.233Z,83.00
2018-12-21T20:17:29.334Z,83.30
2018-12-21T20:20:01.264Z,83.00
2018-12-21T20:22:33.574Z,83.00
2018-12-21T20:25:06.356Z,83.10
2018-12-21T20:27:38.213Z,83.10
2018-12-21T20:30:12.773Z,83.20
2018-12-21T20:32:44.533Z,82.20
2018-12-21T20:35:16.453Z,82.20
2018-12-21T20:37:48.673Z,83.00
2018-12-21T20:40:20.273Z,83.10
2018-12-21T20:42:52.293Z,81.90
2018-12-21T20:45:23.853Z,82.00
2018-12-21T20:47:55.673Z,82.20
2018-12-21T20:50:45.913Z,81.70
2018-12-21T20:53:17.926Z,81.70
2018-12-21T20:55:49.773Z,81.70
2018-12-21T20:58:38.013Z,81.70
2018-12-21T21:01:10.235Z,81.90
2018-12-21T21:03:41.693Z,81.70
2018-12-21T21:06:13.633Z,81.70
2018-12-21T21:08:45.292Z,82.20
2018-12-21T21:11:24.301Z,82.20
2018-12-21T21:13:52.133Z,82.40
2018-12-21T21:16:23.994Z,82.30
2018-12-21T21:18:55.893Z,82.50
2018-12-21T21:21:27.733Z,82.70
2018-12-21T21:23:59.852Z,82.60
2018-12-21T21:26:31.094Z,82.60
2018-12-21T21:29:02.832Z,82.60
2018-12-21T21:31:36.392Z,83.10
2018-12-21T21:34:08.515Z,83.20
2018-12-21T21:36:40.294Z,83.20
2018-12-21T21:39:11.893Z,83.20
2018-12-21T21:41:43.694Z,83.30
2018-12-21T21:44:16.491Z,83.50
2018-12-21T21:46:48.012Z,83.20
2018-12-21T21:49:20.180Z,83.40
2018-12-21T21:51:52.092Z,83.40
2018-12-21T21:54:23.912Z,83.00
2018-12-21T21:56:55.074Z,83.00
2018-12-21T21:59:27.531Z,83.20
2018-12-21T22:01:59.251Z,83.20
2018-12-21T22:04:31.731Z,83.10
2018-12-21T22:07:03.571Z,83.30
2018-12-21T22:09:35.972Z,83.20
2018-12-21T22:12:08.111Z,83.50
2018-12-21T22:14:40.972Z,83.40
2018-12-21T22:17:12.511Z,83.40
2018-12-21T22:19:44.290Z,83.30
2018-12-21T22:22:16.652Z,83.70
2018-12-21T22:24:48.571Z,84.40
2018-12-21T22:27:20.773Z,83.80
2018-12-21T22:29:52.972Z,83.90
2018-12-21T22:32:25.252Z,83.80
2018-12-21T22:34:57.869Z,84.10
2018-12-21T22:37:29.891Z,84.20
2018-12-21T22:40:02.630Z,84.40
2018-12-21T22:42:34.511Z,84.70
2018-12-21T22:45:08.229Z,84.70
2018-12-21T22:47:40.329Z,84.70
2018-12-21T22:50:12.132Z,84.10
2018-12-21T22:52:44.330Z,83.80
2018-12-21T22:55:15.631Z,83.80
2018-12-21T22:57:56.235Z,83.90
2018-12-21T23:00:29.627Z,83.20
2018-12-21T23:03:01.191Z,83.00
2018-12-21T23:05:33.240Z,83.20
2018-12-21T23:08:04.630Z,83.00
2018-12-21T23:10:37.889Z,83.00
2018-12-21T23:13:09.250Z,82.70
2018-12-21T23:15:40.610Z,81.90
2018-12-21T23:18:11.791Z,81.80
2018-12-21T23:20:43.174Z,81.90
2018-12-21T23:23:15.630Z,81.50
2018-12-21T23:25:47.512Z,81.80
2018-12-21T23:28:19.889Z,81.70
2018-12-21T23:30:51.950Z,81.90
2018-12-21T23:33:24.049Z,82.10
2018-12-21T23:35:55.989Z,82.60
2018-12-21T23:38:27.870Z,82.30
2018-12-21T23:40:59.810Z,82.20
2018-12-21T23:43:32.334Z,82.10
2018-12-21T23:46:04.411Z,82.00
2018-12-21T23:48:35.931Z,82.50
2018-12-21T23:51:08.990Z,82.30
2018-12-21T23:53:40.209Z,83.00
2018-12-21T23:56:12.871Z,83.00
2018-12-21T23:58:44.970Z,82.80
